aviador You're here:

KOVE Decoded Metar

OROVILLE in CA, USA
Report Time2017-07-25 19:53:00
UTC Time2017-07-25 20:38:43
Flight Rules vfr VFR
Wind270° at 04 kt
W.Decomp.*RWY 20: 2.4 kt HW 3.2 kt RCW
RWY 31: 2.2 kt HW 3.3 kt LCW
W.Rank270° ranks 18
Current wind is below 270° avg. (4.5)
Visibility9999 m
Phenomena:N/A
Clouds:N/A
Expected CloudBase > 7,600 ft AGL from Temp-Dew spread
CeilingNone
Temp31°C (ISA +16)
Dew Point12°C (31% RH)
Heat Index29.8°C
AAT30.1°C
QNH1013 hPa
Density Alt2,254 ft
Elevation190 ft
Report Wrong Elevation
Raw Report
METAR KOVE 251953Z AUTO 27004KT 10SM CLR 31/12 A2991 RMK AO2 SLP129
T03060122=

Extra information for KOVE:More info

Metar Taf Metar & Taf Last 4 Metars F.Rules Stats Wind Profile Meteogram Temp Stats Airport Information Weather charts Add Link Nearby VenuesMetar ALERT Operation Metar Decoded Social comments

AIRNAV info for KOVE